sensor_id;sensor_type;location;lat;lon;timestamp;temperature;humidity
19206;DHT22;59358;52.134;5.596;2024-02-14T00:02:21;8.20;99.90
19206;DHT22;59358;52.134;5.596;2024-02-14T00:04:48;8.20;99.90
19206;DHT22;59358;52.134;5.596;2024-02-14T00:07:15;8.20;99.90
19206;DHT22;59358;52.134;5.596;2024-02-14T00:09:41;8.20;99.90
19206;DHT22;59358;52.134;5.596;2024-02-14T00:12:08;8.30;99.90
19206;DHT22;59358;52.134;5.596;2024-02-14T00:14:37;8.20;99.90
19206;DHT22;59358;52.134;5.596;2024-02-14T00:17:04;8.30;99.90
19206;DHT22;59358;52.134;5.596;2024-02-14T00:19:32;8.20;99.90
19206;DHT22;59358;52.134;5.596;2024-02-14T00:21:59;8.30;99.90
19206;DHT22;59358;52.134;5.596;2024-02-14T00:24:26;8.30;99.90
19206;DHT22;59358;52.134;5.596;2024-02-14T00:26:55;8.40;99.90
19206;DHT22;59358;52.134;5.596;2024-02-14T00:29:22;8.30;99.90
19206;DHT22;59358;52.134;5.596;2024-02-14T00:31:50;8.30;99.90
19206;DHT22;59358;52.134;5.596;2024-02-14T00:34:17;8.30;99.90
19206;DHT22;59358;52.134;5.596;2024-02-14T00:36:44;8.30;99.90
19206;DHT22;59358;52.134;5.596;2024-02-14T00:39:12;8.30;99.90
19206;DHT22;59358;52.134;5.596;2024-02-14T00:41:38;8.30;99.90
19206;DHT22;59358;52.134;5.596;2024-02-14T00:44:05;8.40;99.90
19206;DHT22;59358;52.134;5.596;2024-02-14T00:46:32;8.40;99.90
19206;DHT22;59358;52.134;5.596;2024-02-14T00:49:00;8.40;99.90
19206;DHT22;59358;52.134;5.596;2024-02-14T00:51:27;8.50;99.90
19206;DHT22;59358;52.134;5.596;2024-02-14T00:53:53;8.40;99.90
19206;DHT22;59358;52.134;5.596;2024-02-14T00:56:20;8.50;99.90
19206;DHT22;59358;52.134;5.596;2024-02-14T00:58:49;8.50;99.90
19206;DHT22;59358;52.134;5.596;2024-02-14T01:01:15;8.60;99.90
19206;DHT22;59358;52.134;5.596;2024-02-14T01:03:43;8.50;99.90
19206;DHT22;59358;52.134;5.596;2024-02-14T01:06:11;8.60;99.90
19206;DHT22;59358;52.134;5.596;2024-02-14T01:08:39;8.60;99.90
19206;DHT22;59358;52.134;5.596;2024-02-14T01:11:06;8.60;99.90
19206;DHT22;59358;52.134;5.596;2024-02-14T01:13:33;8.70;99.90
19206;DHT22;59358;52.134;5.596;2024-02-14T01:16:00;8.60;99.90
19206;DHT22;59358;52.134;5.596;2024-02-14T01:18:28;8.70;99.90
19206;DHT22;59358;52.134;5.596;2024-02-14T01:20:54;8.70;99.90
19206;DHT22;59358;52.134;5.596;2024-02-14T01:23:22;8.70;99.90
19206;DHT22;59358;52.134;5.596;2024-02-14T01:25:49;8.70;99.90
19206;DHT22;59358;52.134;5.596;2024-02-14T01:28:16;8.70;99.90
19206;DHT22;59358;52.134;5.596;2024-02-14T01:30:43;8.80;99.90
19206;DHT22;59358;52.134;5.596;2024-02-14T01:33:10;8.80;99.90
19206;DHT22;59358;52.134;5.596;2024-02-14T01:35:36;8.90;99.90
19206;DHT22;59358;52.134;5.596;2024-02-14T01:38:04;8.80;99.90
19206;DHT22;59358;52.134;5.596;2024-02-14T01:40:32;8.90;99.90
19206;DHT22;59358;52.134;5.596;2024-02-14T01:42:59;8.90;99.90
19206;DHT22;59358;52.134;5.596;2024-02-14T01:45:26;8.90;99.90
19206;DHT22;59358;52.134;5.596;2024-02-14T01:47:53;8.90;99.90
19206;DHT22;59358;52.134;5.596;2024-02-14T01:50:21;8.90;99.90
19206;DHT22;59358;52.134;5.596;2024-02-14T01:52:55;9.00;99.90
19206;DHT22;59358;52.134;5.596;2024-02-14T01:55:23;8.90;99.90
19206;DHT22;59358;52.134;5.596;2024-02-14T01:57:53;9.00;99.90
19206;DHT22;59358;52.134;5.596;2024-02-14T02:00:20;9.00;99.90
19206;DHT22;59358;52.134;5.596;2024-02-14T02:02:48;9.10;99.90
19206;DHT22;59358;52.134;5.596;2024-02-14T02:05:15;9.00;99.90
19206;DHT22;59358;52.134;5.596;2024-02-14T02:07:42;9.00;99.90
19206;DHT22;59358;52.134;5.596;2024-02-14T02:10:10;9.10;99.90
19206;DHT22;59358;52.134;5.596;2024-02-14T02:12:37;9.10;99.90
19206;DHT22;59358;52.134;5.596;2024-02-14T02:15:07;9.20;99.90
19206;DHT22;59358;52.134;5.596;2024-02-14T02:17:36;9.20;99.90
19206;DHT22;59358;52.134;5.596;2024-02-14T02:20:03;9.20;99.90
19206;DHT22;59358;52.134;5.596;2024-02-14T02:22:32;9.20;99.90
19206;DHT22;59358;52.134;5.596;2024-02-14T02:25:02;9.30;99.90
19206;DHT22;59358;52.134;5.596;2024-02-14T02:27:33;9.30;99.90
19206;DHT22;59358;52.134;5.596;2024-02-14T02:30:03;9.20;99.90
19206;DHT22;59358;52.134;5.596;2024-02-14T02:32:30;9.30;99.90
19206;DHT22;59358;52.134;5.596;2024-02-14T02:34:57;9.30;99.90
19206;DHT22;59358;52.134;5.596;2024-02-14T02:37:25;9.30;99.90
19206;DHT22;59358;52.134;5.596;2024-02-14T02:39:52;9.30;99.90
19206;DHT22;59358;52.134;5.596;2024-02-14T02:42:20;9.40;99.90
19206;DHT22;59358;52.134;5.596;2024-02-14T02:44:49;9.40;99.90
19206;DHT22;59358;52.134;5.596;2024-02-14T02:47:16;9.30;99.90
19206;DHT22;59358;52.134;5.596;2024-02-14T02:49:43;9.30;99.90
19206;DHT22;59358;52.134;5.596;2024-02-14T02:52:11;9.30;99.90
19206;DHT22;59358;52.134;5.596;2024-02-14T02:54:38;9.40;99.90
19206;DHT22;59358;52.134;5.596;2024-02-14T02:57:06;9.40;99.90
19206;DHT22;59358;52.134;5.596;2024-02-14T02:59:34;9.30;99.90
19206;DHT22;59358;52.134;5.596;2024-02-14T03:02:02;9.30;99.90
19206;DHT22;59358;52.134;5.596;2024-02-14T03:04:28;9.30;99.90
19206;DHT22;59358;52.134;5.596;2024-02-14T03:06:57;9.40;99.90
19206;DHT22;59358;52.134;5.596;2024-02-14T03:09:25;9.30;99.90
19206;DHT22;59358;52.134;5.596;2024-02-14T03:11:51;9.30;99.90
19206;DHT22;59358;52.134;5.596;2024-02-14T03:14:22;9.30;99.90
19206;DHT22;59358;52.134;5.596;2024-02-14T03:16:50;9.40;99.90
19206;DHT22;59358;52.134;5.596;2024-02-14T03:19:18;9.40;99.90
19206;DHT22;59358;52.134;5.596;2024-02-14T03:21:44;9.40;99.90
19206;DHT22;59358;52.134;5.596;2024-02-14T03:24:12;9.40;99.90
19206;DHT22;59358;52.134;5.596;2024-02-14T03:26:39;9.40;99.90
19206;DHT22;59358;52.134;5.596;2024-02-14T03:29:07;9.40;99.90
19206;DHT22;59358;52.134;5.596;2024-02-14T03:31:34;9.50;99.90
19206;DHT22;59358;52.134;5.596;2024-02-14T03:34:02;9.50;99.90
19206;DHT22;59358;52.134;5.596;2024-02-14T03:36:29;9.50;99.90
19206;DHT22;59358;52.134;5.596;2024-02-14T03:38:56;9.50;99.90
19206;DHT22;59358;52.134;5.596;2024-02-14T03:41:23;9.50;99.90
19206;DHT22;59358;52.134;5.596;2024-02-14T03:43:50;9.50;99.90
19206;DHT22;59358;52.134;5.596;2024-02-14T03:46:19;9.60;99.90
19206;DHT22;59358;52.134;5.596;2024-02-14T03:48:46;9.60;99.90
19206;DHT22;59358;52.134;5.596;2024-02-14T03:51:15;9.60;99.90
19206;DHT22;59358;52.134;5.596;2024-02-14T03:53:43;9.70;99.90
19206;DHT22;59358;52.134;5.596;2024-02-14T03:56:09;9.70;99.90
19206;DHT22;59358;52.134;5.596;2024-02-14T03:58:38;9.80;99.90
19206;DHT22;59358;52.134;5.596;2024-02-14T04:01:04;9.70;99.90
19206;DHT22;59358;52.134;5.596;2024-02-14T04:03:31;9.80;99.90
19206;DHT22;59358;52.134;5.596;2024-02-14T04:05:59;9.80;99.90
19206;DHT22;59358;52.134;5.596;2024-02-14T04:08:27;9.90;99.90
19206;DHT22;59358;52.134;5.596;2024-02-14T04:10:55;9.80;99.90
19206;DHT22;59358;52.134;5.596;2024-02-14T04:13:22;9.90;99.90
19206;DHT22;59358;52.134;5.596;2024-02-14T04:15:48;10.00;99.90
19206;DHT22;59358;52.134;5.596;2024-02-14T04:18:15;10.10;99.90
19206;DHT22;59358;52.134;5.596;2024-02-14T04:20:43;10.00;99.90
19206;DHT22;59358;52.134;5.596;2024-02-14T04:23:10;10.10;99.90
19206;DHT22;59358;52.134;5.596;2024-02-14T04:25:38;10.10;99.90
19206;DHT22;59358;52.134;5.596;2024-02-14T04:28:05;10.10;99.90
19206;DHT22;59358;52.134;5.596;2024-02-14T04:30:32;10.10;99.90
19206;DHT22;59358;52.134;5.596;2024-02-14T04:33:01;10.10;99.90
19206;DHT22;59358;52.134;5.596;2024-02-14T04:35:28;10.20;99.90
19206;DHT22;59358;52.134;5.596;2024-02-14T04:37:55;10.20;99.90
19206;DHT22;59358;52.134;5.596;2024-02-14T04:40:22;10.30;99.90
19206;DHT22;59358;52.134;5.596;2024-02-14T04:42:50;10.20;99.90
19206;DHT22;59358;52.134;5.596;2024-02-14T04:45:17;10.30;99.90
19206;DHT22;59358;52.134;5.596;2024-02-14T04:47:44;10.20;99.90
19206;DHT22;59358;52.134;5.596;2024-02-14T04:50:11;10.20;99.90
19206;DHT22;59358;52.134;5.596;2024-02-14T04:52:39;10.30;99.90
19206;DHT22;59358;52.134;5.596;2024-02-14T04:55:07;10.40;99.90
19206;DHT22;59358;52.134;5.596;2024-02-14T04:57:34;10.30;99.90
19206;DHT22;59358;52.134;5.596;2024-02-14T05:00:04;10.40;99.90
19206;DHT22;59358;52.134;5.596;2024-02-14T05:02:34;10.30;99.90
19206;DHT22;59358;52.134;5.596;2024-02-14T05:05:01;10.40;99.90
19206;DHT22;59358;52.134;5.596;2024-02-14T05:07:28;10.30;99.90
19206;DHT22;59358;52.134;5.596;2024-02-14T05:09:55;10.40;99.90
19206;DHT22;59358;52.134;5.596;2024-02-14T05:12:22;10.40;99.90
19206;DHT22;59358;52.134;5.596;2024-02-14T05:14:49;10.50;99.90
19206;DHT22;59358;52.134;5.596;2024-02-14T05:17:18;10.30;99.90
19206;DHT22;59358;52.134;5.596;2024-02-14T05:19:45;10.40;99.90
19206;DHT22;59358;52.134;5.596;2024-02-14T05:22:11;10.50;99.90
19206;DHT22;59358;52.134;5.596;2024-02-14T05:24:39;10.40;99.90
19206;DHT22;59358;52.134;5.596;2024-02-14T05:27:05;10.40;99.90
19206;DHT22;59358;52.134;5.596;2024-02-14T05:29:32;10.40;99.90
19206;DHT22;59358;52.134;5.596;2024-02-14T05:31:59;10.40;99.90
19206;DHT22;59358;52.134;5.596;2024-02-14T05:34:27;10.40;99.90
19206;DHT22;59358;52.134;5.596;2024-02-14T05:36:54;10.50;99.90
19206;DHT22;59358;52.134;5.596;2024-02-14T05:39:21;10.40;99.90
19206;DHT22;59358;52.134;5.596;2024-02-14T05:41:48;10.40;99.90
19206;DHT22;59358;52.134;5.596;2024-02-14T05:44:16;10.50;99.90
19206;DHT22;59358;52.134;5.596;2024-02-14T05:46:43;10.40;99.90
19206;DHT22;59358;52.134;5.596;2024-02-14T05:49:10;10.50;99.90
19206;DHT22;59358;52.134;5.596;2024-02-14T05:51:38;10.40;99.90
19206;DHT22;59358;52.134;5.596;2024-02-14T05:54:06;10.50;99.90
19206;DHT22;59358;52.134;5.596;2024-02-14T05:56:33;10.50;99.90
19206;DHT22;59358;52.134;5.596;2024-02-14T05:59:00;10.50;99.90
19206;DHT22;59358;52.134;5.596;2024-02-14T06:01:29;10.50;99.90
19206;DHT22;59358;52.134;5.596;2024-02-14T06:03:56;10.50;99.90
19206;DHT22;59358;52.134;5.596;2024-02-14T06:06:23;10.60;99.90
19206;DHT22;59358;52.134;5.596;2024-02-14T06:08:51;10.50;99.90
19206;DHT22;59358;52.134;5.596;2024-02-14T06:11:18;10.50;99.90
19206;DHT22;59358;52.134;5.596;2024-02-14T06:13:46;10.40;99.90
19206;DHT22;59358;52.134;5.596;2024-02-14T06:16:13;10.40;99.90
19206;DHT22;59358;52.134;5.596;2024-02-14T06:18:40;10.40;99.90
19206;DHT22;59358;52.134;5.596;2024-02-14T06:21:07;10.30;99.90
19206;DHT22;59358;52.134;5.596;2024-02-14T06:23:34;10.40;99.90
19206;DHT22;59358;52.134;5.596;2024-02-14T06:26:04;10.30;99.90
19206;DHT22;59358;52.134;5.596;2024-02-14T06:28:30;10.30;99.90
19206;DHT22;59358;52.134;5.596;2024-02-14T06:30:57;10.40;99.90
19206;DHT22;59358;52.134;5.596;2024-02-14T06:33:24;10.30;99.90
19206;DHT22;59358;52.134;5.596;2024-02-14T06:35:51;10.40;99.90
19206;DHT22;59358;52.134;5.596;2024-02-14T06:38:17;10.40;99.90
19206;DHT22;59358;52.134;5.596;2024-02-14T06:40:44;10.30;99.90
19206;DHT22;59358;52.134;5.596;2024-02-14T06:43:13;10.40;99.90
19206;DHT22;59358;52.134;5.596;2024-02-14T06:45:40;10.40;99.90
19206;DHT22;59358;52.134;5.596;2024-02-14T06:48:07;10.50;99.90
19206;DHT22;59358;52.134;5.596;2024-02-14T06:50:34;10.40;99.90
19206;DHT22;59358;52.134;5.596;2024-02-14T06:53:01;10.40;99.90
19206;DHT22;59358;52.134;5.596;2024-02-14T06:55:28;10.40;99.90
19206;DHT22;59358;52.134;5.596;2024-02-14T06:57:57;10.40;99.90
19206;DHT22;59358;52.134;5.596;2024-02-14T07:00:25;10.40;99.90
19206;DHT22;59358;52.134;5.596;2024-02-14T07:02:53;10.40;99.90
19206;DHT22;59358;52.134;5.596;2024-02-14T07:05:20;10.40;99.90
19206;DHT22;59358;52.134;5.596;2024-02-14T07:07:47;10.40;99.90
19206;DHT22;59358;52.134;5.596;2024-02-14T07:10:13;10.40;99.90
19206;DHT22;59358;52.134;5.596;2024-02-14T07:12:40;10.40;99.90
19206;DHT22;59358;52.134;5.596;2024-02-14T07:15:07;10.30;99.90
19206;DHT22;59358;52.134;5.596;2024-02-14T07:17:36;10.40;99.90
19206;DHT22;59358;52.134;5.596;2024-02-14T07:20:04;10.40;99.90
19206;DHT22;59358;52.134;5.596;2024-02-14T07:22:34;10.40;99.90
19206;DHT22;59358;52.134;5.596;2024-02-14T07:25:01;10.40;99.90
19206;DHT22;59358;52.134;5.596;2024-02-14T07:27:28;10.40;99.90
19206;DHT22;59358;52.134;5.596;2024-02-14T07:29:54;10.50;99.90
19206;DHT22;59358;52.134;5.596;2024-02-14T07:32:21;10.40;99.90
19206;DHT22;59358;52.134;5.596;2024-02-14T07:34:49;10.40;99.90
19206;DHT22;59358;52.134;5.596;2024-02-14T07:37:16;10.50;99.90
19206;DHT22;59358;52.134;5.596;2024-02-14T07:39:45;10.50;99.90
19206;DHT22;59358;52.134;5.596;2024-02-14T07:42:12;10.60;99.90
19206;DHT22;59358;52.134;5.596;2024-02-14T07:44:39;10.60;99.90
19206;DHT22;59358;52.134;5.596;2024-02-14T07:47:05;10.70;99.90
19206;DHT22;59358;52.134;5.596;2024-02-14T07:49:32;10.60;99.90
19206;DHT22;59358;52.134;5.596;2024-02-14T07:52:00;10.70;99.90
19206;DHT22;59358;52.134;5.596;2024-02-14T07:54:27;10.60;99.90
19206;DHT22;59358;52.134;5.596;2024-02-14T07:56:54;10.60;99.90
19206;DHT22;59358;52.134;5.596;2024-02-14T07:59:21;10.60;99.90
19206;DHT22;59358;52.134;5.596;2024-02-14T08:01:47;10.60;99.90
19206;DHT22;59358;52.134;5.596;2024-02-14T08:04:14;10.70;99.90
19206;DHT22;59358;52.134;5.596;2024-02-14T08:06:42;10.80;99.90
19206;DHT22;59358;52.134;5.596;2024-02-14T08:09:10;10.60;99.90
19206;DHT22;59358;52.134;5.596;2024-02-14T08:11:36;10.70;99.90
19206;DHT22;59358;52.134;5.596;2024-02-14T08:14:03;10.70;99.90
19206;DHT22;59358;52.134;5.596;2024-02-14T08:16:30;10.80;99.90
19206;DHT22;59358;52.134;5.596;2024-02-14T08:18:57;10.80;99.90
19206;DHT22;59358;52.134;5.596;2024-02-14T08:21:25;10.70;99.90
19206;DHT22;59358;52.134;5.596;2024-02-14T08:23:52;10.80;99.90
19206;DHT22;59358;52.134;5.596;2024-02-14T08:26:20;10.70;99.90
19206;DHT22;59358;52.134;5.596;2024-02-14T08:28:48;10.70;99.90
19206;DHT22;59358;52.134;5.596;2024-02-14T08:31:15;10.80;99.90
19206;DHT22;59358;52.134;5.596;2024-02-14T08:33:42;10.80;99.90
19206;DHT22;59358;52.134;5.596;2024-02-14T08:36:09;10.80;99.90
19206;DHT22;59358;52.134;5.596;2024-02-14T08:38:35;10.80;99.90
19206;DHT22;59358;52.134;5.596;2024-02-14T08:41:02;10.80;99.90
19206;DHT22;59358;52.134;5.596;2024-02-14T08:43:30;10.90;99.90
19206;DHT22;59358;52.134;5.596;2024-02-14T08:45:57;10.80;99.90
19206;DHT22;59358;52.134;5.596;2024-02-14T08:48:24;10.90;99.90
19206;DHT22;59358;52.134;5.596;2024-02-14T08:50:52;10.90;99.90
19206;DHT22;59358;52.134;5.596;2024-02-14T08:53:19;10.80;99.90
19206;DHT22;59358;52.134;5.596;2024-02-14T08:55:46;10.90;99.90
19206;DHT22;59358;52.134;5.596;2024-02-14T08:58:13;10.90;99.90
19206;DHT22;59358;52.134;5.596;2024-02-14T09:00:41;11.00;99.90
19206;DHT22;59358;52.134;5.596;2024-02-14T09:03:08;11.00;99.90
19206;DHT22;59358;52.134;5.596;2024-02-14T09:05:35;11.00;99.90
19206;DHT22;59358;52.134;5.596;2024-02-14T09:08:04;11.00;99.90
19206;DHT22;59358;52.134;5.596;2024-02-14T09:10:31;11.00;99.90
19206;DHT22;59358;52.134;5.596;2024-02-14T09:12:58;11.10;99.90
19206;DHT22;59358;52.134;5.596;2024-02-14T09:15:24;11.10;99.90
19206;DHT22;59358;52.134;5.596;2024-02-14T09:17:53;11.20;99.90
19206;DHT22;59358;52.134;5.596;2024-02-14T09:20:20;11.20;99.90
19206;DHT22;59358;52.134;5.596;2024-02-14T09:22:47;11.20;99.90
19206;DHT22;59358;52.134;5.596;2024-02-14T09:25:14;11.20;99.90
19206;DHT22;59358;52.134;5.596;2024-02-14T09:27:41;11.10;99.90
19206;DHT22;59358;52.134;5.596;2024-02-14T09:30:09;11.10;99.90
19206;DHT22;59358;52.134;5.596;2024-02-14T09:32:37;11.10;99.90
19206;DHT22;59358;52.134;5.596;2024-02-14T09:35:06;11.10;99.90
19206;DHT22;59358;52.134;5.596;2024-02-14T09:37:33;11.00;99.90
19206;DHT22;59358;52.134;5.596;2024-02-14T09:39:59;11.10;99.90
19206;DHT22;59358;52.134;5.596;2024-02-14T09:42:31;11.10;99.90
19206;DHT22;59358;52.134;5.596;2024-02-14T09:45:01;11.30;99.90
19206;DHT22;59358;52.134;5.596;2024-02-14T09:47:30;11.20;99.90
19206;DHT22;59358;52.134;5.596;2024-02-14T09:49:58;11.20;99.90
19206;DHT22;59358;52.134;5.596;2024-02-14T09:52:27;11.30;99.90
19206;DHT22;59358;52.134;5.596;2024-02-14T09:54:55;11.20;99.90
19206;DHT22;59358;52.134;5.596;2024-02-14T09:57:22;11.30;99.90
19206;DHT22;59358;52.134;5.596;2024-02-14T09:59:52;11.30;99.90
19206;DHT22;59358;52.134;5.596;2024-02-14T10:02:20;11.20;99.90
19206;DHT22;59358;52.134;5.596;2024-02-14T10:04:47;11.20;99.90
19206;DHT22;59358;52.134;5.596;2024-02-14T10:07:14;11.20;99.90
19206;DHT22;59358;52.134;5.596;2024-02-14T10:09:42;11.10;99.90
19206;DHT22;59358;52.134;5.596;2024-02-14T10:12:09;11.30;99.90
19206;DHT22;59358;52.134;5.596;2024-02-14T10:14:36;11.20;99.90
19206;DHT22;59358;52.134;5.596;2024-02-14T10:17:04;11.10;99.90
19206;DHT22;59358;52.134;5.596;2024-02-14T10:19:31;11.20;99.90
19206;DHT22;59358;52.134;5.596;2024-02-14T10:21:58;11.40;99.90
19206;DHT22;59358;52.134;5.596;2024-02-14T10:24:26;11.40;99.90
19206;DHT22;59358;52.134;5.596;2024-02-14T10:26:55;11.50;99.90
19206;DHT22;59358;52.134;5.596;2024-02-14T10:29:23;11.40;99.90
19206;DHT22;59358;52.134;5.596;2024-02-14T10:31:50;11.40;99.90
19206;DHT22;59358;52.134;5.596;2024-02-14T10:34:18;11.30;99.90
19206;DHT22;59358;52.134;5.596;2024-02-14T10:36:47;11.40;99.90
19206;DHT22;59358;52.134;5.596;2024-02-14T10:39:17;11.40;99.90
19206;DHT22;59358;52.134;5.596;2024-02-14T10:41:46;11.40;99.90
19206;DHT22;59358;52.134;5.596;2024-02-14T10:44:14;11.40;99.90
19206;DHT22;59358;52.134;5.596;2024-02-14T10:46:41;11.40;99.90
19206;DHT22;59358;52.134;5.596;2024-02-14T10:49:10;11.50;99.90
19206;DHT22;59358;52.134;5.596;2024-02-14T10:51:38;11.50;99.90
19206;DHT22;59358;52.134;5.596;2024-02-14T10:54:10;11.60;99.90
19206;DHT22;59358;52.134;5.596;2024-02-14T10:56:39;11.50;99.90
19206;DHT22;59358;52.134;5.596;2024-02-14T10:59:09;11.60;99.90
19206;DHT22;59358;52.134;5.596;2024-02-14T11:01:38;11.80;99.90
19206;DHT22;59358;52.134;5.596;2024-02-14T11:04:06;11.70;99.90
19206;DHT22;59358;52.134;5.596;2024-02-14T11:06:44;11.70;99.90
19206;DHT22;59358;52.134;5.596;2024-02-14T11:09:12;11.70;99.90
19206;DHT22;59358;52.134;5.596;2024-02-14T11:11:41;11.80;99.90
19206;DHT22;59358;52.134;5.596;2024-02-14T11:14:08;11.80;99.90
19206;DHT22;59358;52.134;5.596;2024-02-14T11:16:38;11.70;99.90
19206;DHT22;59358;52.134;5.596;2024-02-14T11:19:06;11.70;99.90
19206;DHT22;59358;52.134;5.596;2024-02-14T11:21:35;11.80;99.90
19206;DHT22;59358;52.134;5.596;2024-02-14T11:24:05;11.90;99.90
19206;DHT22;59358;52.134;5.596;2024-02-14T11:26:39;11.90;99.90
19206;DHT22;59358;52.134;5.596;2024-02-14T11:29:05;11.90;99.90
19206;DHT22;59358;52.134;5.596;2024-02-14T11:31:33;11.90;99.90
19206;DHT22;59358;52.134;5.596;2024-02-14T11:34:04;11.90;99.90
19206;DHT22;59358;52.134;5.596;2024-02-14T11:36:32;12.00;99.90
19206;DHT22;59358;52.134;5.596;2024-02-14T11:39:03;11.90;99.90
19206;DHT22;59358;52.134;5.596;2024-02-14T11:41:32;11.90;99.90
19206;DHT22;59358;52.134;5.596;2024-02-14T11:44:01;11.90;99.90
19206;DHT22;59358;52.134;5.596;2024-02-14T11:46:30;12.00;99.90
19206;DHT22;59358;52.134;5.596;2024-02-14T11:48:58;11.90;99.90
19206;DHT22;59358;52.134;5.596;2024-02-14T11:51:28;11.90;99.90
19206;DHT22;59358;52.134;5.596;2024-02-14T11:53:56;11.90;99.90
19206;DHT22;59358;52.134;5.596;2024-02-14T11:56:23;11.80;99.90
19206;DHT22;59358;52.134;5.596;2024-02-14T11:58:51;11.80;99.90
19206;DHT22;59358;52.134;5.596;2024-02-14T12:01:18;11.80;99.90
19206;DHT22;59358;52.134;5.596;2024-02-14T12:03:45;11.80;99.90
19206;DHT22;59358;52.134;5.596;2024-02-14T12:06:12;11.80;99.90
19206;DHT22;59358;52.134;5.596;2024-02-14T12:08:42;11.90;99.90
19206;DHT22;59358;52.134;5.596;2024-02-14T12:11:10;11.90;99.90
19206;DHT22;59358;52.134;5.596;2024-02-14T12:13:37;11.90;99.90
19206;DHT22;59358;52.134;5.596;2024-02-14T12:16:08;11.90;99.90
19206;DHT22;59358;52.134;5.596;2024-02-14T12:18:36;11.90;99.90
19206;DHT22;59358;52.134;5.596;2024-02-14T12:21:06;12.00;99.90
19206;DHT22;59358;52.134;5.596;2024-02-14T12:23:34;12.00;99.90
19206;DHT22;59358;52.134;5.596;2024-02-14T12:26:03;12.00;99.90
19206;DHT22;59358;52.134;5.596;2024-02-14T12:28:31;11.90;99.90
19206;DHT22;59358;52.134;5.596;2024-02-14T12:30:58;12.00;99.90
19206;DHT22;59358;52.134;5.596;2024-02-14T12:33:26;11.90;99.90
19206;DHT22;59358;52.134;5.596;2024-02-14T12:35:54;12.00;99.90
19206;DHT22;59358;52.134;5.596;2024-02-14T12:38:22;12.00;99.90
19206;DHT22;59358;52.134;5.596;2024-02-14T12:40:49;11.90;99.90
19206;DHT22;59358;52.134;5.596;2024-02-14T12:43:18;12.00;99.90
19206;DHT22;59358;52.134;5.596;2024-02-14T12:45:45;12.00;99.90
19206;DHT22;59358;52.134;5.596;2024-02-14T12:48:13;12.10;99.90
19206;DHT22;59358;52.134;5.596;2024-02-14T12:50:41;12.00;99.90
19206;DHT22;59358;52.134;5.596;2024-02-14T12:53:13;12.00;99.90
19206;DHT22;59358;52.134;5.596;2024-02-14T12:55:40;11.90;99.90
19206;DHT22;59358;52.134;5.596;2024-02-14T12:58:07;12.10;99.90
19206;DHT22;59358;52.134;5.596;2024-02-14T13:00:36;12.10;99.90
19206;DHT22;59358;52.134;5.596;2024-02-14T13:03:03;12.00;99.90
19206;DHT22;59358;52.134;5.596;2024-02-14T13:05:30;12.10;99.90
19206;DHT22;59358;52.134;5.596;2024-02-14T13:07:57;12.00;99.90
19206;DHT22;59358;52.134;5.596;2024-02-14T13:10:24;11.90;99.90
19206;DHT22;59358;52.134;5.596;2024-02-14T13:12:51;11.90;99.90
19206;DHT22;59358;52.134;5.596;2024-02-14T13:15:18;12.00;99.90
19206;DHT22;59358;52.134;5.596;2024-02-14T13:17:46;12.00;99.90
19206;DHT22;59358;52.134;5.596;2024-02-14T13:20:13;12.00;99.90
19206;DHT22;59358;52.134;5.596;2024-02-14T13:22:41;12.10;99.90
19206;DHT22;59358;52.134;5.596;2024-02-14T13:25:08;12.10;99.90
19206;DHT22;59358;52.134;5.596;2024-02-14T13:27:35;12.00;99.90
19206;DHT22;59358;52.134;5.596;2024-02-14T13:30:02;12.00;99.90
19206;DHT22;59358;52.134;5.596;2024-02-14T13:32:28;12.10;99.90
19206;DHT22;59358;52.134;5.596;2024-02-14T13:34:57;12.10;99.90
19206;DHT22;59358;52.134;5.596;2024-02-14T13:37:24;12.20;99.90
19206;DHT22;59358;52.134;5.596;2024-02-14T13:39:51;12.30;99.90
19206;DHT22;59358;52.134;5.596;2024-02-14T13:42:18;12.20;99.90
19206;DHT22;59358;52.134;5.596;2024-02-14T13:44:45;12.20;99.90
19206;DHT22;59358;52.134;5.596;2024-02-14T13:47:12;12.20;99.90
19206;DHT22;59358;52.134;5.596;2024-02-14T13:49:39;12.30;99.90
19206;DHT22;59358;52.134;5.596;2024-02-14T13:52:07;12.30;99.90
19206;DHT22;59358;52.134;5.596;2024-02-14T13:54:33;12.30;99.90
19206;DHT22;59358;52.134;5.596;2024-02-14T13:57:01;12.30;99.90
19206;DHT22;59358;52.134;5.596;2024-02-14T13:59:28;12.30;99.90
19206;DHT22;59358;52.134;5.596;2024-02-14T14:01:56;12.30;99.90
19206;DHT22;59358;52.134;5.596;2024-02-14T14:04:22;12.20;99.90
19206;DHT22;59358;52.134;5.596;2024-02-14T14:06:51;12.20;99.90
19206;DHT22;59358;52.134;5.596;2024-02-14T14:09:20;12.30;99.90
19206;DHT22;59358;52.134;5.596;2024-02-14T14:11:47;12.30;99.90
19206;DHT22;59358;52.134;5.596;2024-02-14T14:14:16;12.20;99.90
19206;DHT22;59358;52.134;5.596;2024-02-14T14:16:44;12.20;99.90
19206;DHT22;59358;52.134;5.596;2024-02-14T14:19:11;12.20;99.90
19206;DHT22;59358;52.134;5.596;2024-02-14T14:21:37;12.20;99.90
19206;DHT22;59358;52.134;5.596;2024-02-14T14:24:04;12.20;99.90
19206;DHT22;59358;52.134;5.596;2024-02-14T14:26:33;12.20;99.90
19206;DHT22;59358;52.134;5.596;2024-02-14T14:29:00;12.20;99.90
19206;DHT22;59358;52.134;5.596;2024-02-14T14:31:27;12.20;99.90
19206;DHT22;59358;52.134;5.596;2024-02-14T14:33:54;12.30;99.90
19206;DHT22;59358;52.134;5.596;2024-02-14T14:36:22;12.30;99.90
19206;DHT22;59358;52.134;5.596;2024-02-14T14:38:49;12.30;99.90
19206;DHT22;59358;52.134;5.596;2024-02-14T14:41:16;12.30;99.90
19206;DHT22;59358;52.134;5.596;2024-02-14T14:43:44;12.40;99.90
19206;DHT22;59358;52.134;5.596;2024-02-14T14:46:14;12.30;99.90
19206;DHT22;59358;52.134;5.596;2024-02-14T14:48:41;12.30;99.90
19206;DHT22;59358;52.134;5.596;2024-02-14T14:51:08;12.40;99.90
19206;DHT22;59358;52.134;5.596;2024-02-14T14:53:35;12.30;99.90
19206;DHT22;59358;52.134;5.596;2024-02-14T14:56:02;12.30;99.90
19206;DHT22;59358;52.134;5.596;2024-02-14T14:58:28;12.30;99.90
19206;DHT22;59358;52.134;5.596;2024-02-14T15:01:00;12.40;99.90
19206;DHT22;59358;52.134;5.596;2024-02-14T15:03:29;12.50;99.90
19206;DHT22;59358;52.134;5.596;2024-02-14T15:05:56;12.50;99.90
19206;DHT22;59358;52.134;5.596;2024-02-14T15:08:23;12.50;99.90
19206;DHT22;59358;52.134;5.596;2024-02-14T15:10:53;12.40;99.90
19206;DHT22;59358;52.134;5.596;2024-02-14T15:13:20;12.40;99.90
19206;DHT22;59358;52.134;5.596;2024-02-14T15:15:47;12.40;99.90
19206;DHT22;59358;52.134;5.596;2024-02-14T15:18:15;12.50;99.90
19206;DHT22;59358;52.134;5.596;2024-02-14T15:20:42;12.50;99.90
19206;DHT22;59358;52.134;5.596;2024-02-14T15:23:09;12.50;99.90
19206;DHT22;59358;52.134;5.596;2024-02-14T15:25:36;12.50;99.90
19206;DHT22;59358;52.134;5.596;2024-02-14T15:28:07;12.40;99.90
19206;DHT22;59358;52.134;5.596;2024-02-14T15:30:38;12.50;99.90
19206;DHT22;59358;52.134;5.596;2024-02-14T15:33:23;12.40;99.90
19206;DHT22;59358;52.134;5.596;2024-02-14T15:35:52;12.40;99.90
19206;DHT22;59358;52.134;5.596;2024-02-14T15:38:19;12.50;99.90